Time;durP1;ratioP1;P1;durP2;ratioP2;P2;SDS_P1;SDS_P2;PMS_P1;PMS_P2;Temp;Humidity;BMP_temperature;BMP_pressure;BME280_temperature;BME280_humidity;BME280_pressure;Samples;Min_cycle;Max_cycle;Signal;HPM_P1;HPM_P2
2022/08/03 00:00:40;;;;;;;3.40;1.30;;;23.90;94.80;;;;;;5065278;28;20409;-85
2022/08/03 00:03:05;;;;;;;4.38;1.48;;;23.90;94.90;;;;;;5064042;28;20393;-85
2022/08/03 00:05:32;;;;;;;2.65;1.52;;;23.90;94.90;;;;;;5065096;28;20044;-85
2022/08/03 00:07:59;;;;;;;3.95;2.28;;;23.80;94.90;;;;;;5095405;27;20071;-86
2022/08/03 00:10:25;;;;;;;5.53;1.85;;;23.90;95.00;;;;;;5098810;27;20049;-86
2022/08/03 00:12:52;;;;;;;3.42;1.00;;;23.80;95.00;;;;;;5066614;28;20075;-85
2022/08/03 00:15:18;;;;;;;2.95;0.90;;;23.80;95.10;;;;;;5065570;28;20130;-85
2022/08/03 00:17:44;;;;;;;5.30;1.50;;;23.80;95.30;;;;;;5066145;28;20071;-86
2022/08/03 00:20:10;;;;;;;6.00;1.00;;;23.80;95.10;;;;;;5065037;28;21147;-86
2022/08/03 00:22:36;;;;;;;1.92;1.35;;;23.70;95.20;;;;;;5066856;28;20041;-85
2022/08/03 00:25:03;;;;;;;4.38;1.90;;;23.70;95.20;;;;;;5097622;27;20461;-85
2022/08/03 00:27:28;;;;;;;3.40;1.48;;;23.70;95.20;;;;;;5061223;28;20526;-85
2022/08/03 00:29:54;;;;;;;3.85;1.55;;;23.70;95.30;;;;;;5072709;28;20056;-85
2022/08/03 00:32:21;;;;;;;2.40;1.17;;;23.60;95.40;;;;;;5070352;28;20048;-85
2022/08/03 00:34:47;;;;;;;3.38;1.30;;;23.60;95.40;;;;;;5067631;28;20482;-85
2022/08/03 00:37:13;;;;;;;1.90;1.02;;;23.60;95.50;;;;;;5069311;28;20052;-85
2022/08/03 00:39:39;;;;;;;4.07;1.20;;;23.60;95.50;;;;;;5067503;28;20091;-84
2022/08/03 00:42:05;;;;;;;2.88;1.27;;;23.60;95.60;;;;;;5101979;27;20044;-84
2022/08/03 00:44:37;;;;;;;2.05;1.23;;;23.60;95.60;;;;;;5114370;27;20036;-84
2022/08/03 00:47:03;;;;;;;3.28;1.15;;;23.60;95.60;;;;;;5115477;27;20044;-84
2022/08/03 00:49:29;;;;;;;6.63;1.38;;;23.60;95.70;;;;;;5080901;28;20045;-83
2022/08/03 00:51:55;;;;;;;8.52;1.45;;;23.60;95.70;;;;;;5081109;28;20036;-84
2022/08/03 00:54:23;;;;;;;6.50;2.00;;;23.50;95.80;;;;;;5085812;28;20060;-83
2022/08/03 00:56:50;;;;;;;3.42;1.30;;;23.50;95.90;;;;;;5122438;27;20044;-83
2022/08/03 00:59:16;;;;;;;2.10;1.30;;;23.40;96.00;;;;;;5125814;27;20132;-84
2022/08/03 01:01:42;;;;;;;4.10;1.00;;;23.40;96.00;;;;;;5093097;28;20092;-84
2022/08/03 01:04:08;;;;;;;3.58;1.15;;;23.40;96.10;;;;;;5132280;27;20045;-84
2022/08/03 01:06:44;;;;;;;2.00;1.20;;;23.40;96.20;;;;;;5098263;28;20063;-84
2022/08/03 01:09:16;;;;;;;2.05;1.20;;;23.40;96.20;;;;;;5072908;28;20124;-84
2022/08/03 01:12:04;;;;;;;4.22;1.10;;;23.40;96.20;;;;;;5072616;28;20588;-84
2022/08/03 01:14:30;;;;;;;1.52;1.10;;;23.30;96.30;;;;;;5105982;27;20036;-84
2022/08/03 01:16:58;;;;;;;3.28;1.25;;;23.30;96.30;;;;;;5073185;28;20041;-84
2022/08/03 01:19:27;;;;;;;5.20;1.40;;;23.30;96.40;;;;;;5104626;27;20079;-84
2022/08/03 01:22:31;;;;;;;4.97;1.30;;;23.30;96.50;;;;;;5071809;28;20033;-84
2022/08/03 01:25:49;;;;;;;4.13;1.70;;;23.30;96.60;;;;;;5043073;28;20187;-84
2022/08/03 01:28:18;;;;;;;3.28;1.35;;;23.20;96.70;;;;;;4995696;28;20544;-84
2022/08/03 01:30:46;;;;;;;3.88;1.60;;;23.10;96.70;;;;;;5060104;28;20569;-84
2022/08/03 01:33:17;;;;;;;1.63;1.20;;;23.10;96.80;;;;;;5071826;28;20051;-84
2022/08/03 01:35:53;;;;;;;7.13;1.65;;;23.10;97.00;;;;;;5069460;28;20044;-84
2022/08/03 01:38:33;;;;;;;4.38;1.45;;;23.10;97.10;;;;;;5066798;28;20587;-84
2022/08/03 01:41:12;;;;;;;1.77;1.08;;;23.10;97.10;;;;;;5055711;28;20044;-85
2022/08/03 01:43:41;;;;;;;3.80;1.70;;;23.00;97.20;;;;;;5067152;28;20871;-84
2022/08/03 01:46:08;;;;;;;4.78;1.45;;;23.00;97.30;;;;;;5071826;28;20051;-85
2022/08/03 01:48:37;;;;;;;2.40;1.02;;;23.00;97.30;;;;;;5071531;28;20037;-85
2022/08/03 01:51:04;;;;;;;2.72;1.20;;;23.00;97.40;;;;;;5071652;28;20041;-85
2022/08/03 01:53:32;;;;;;;3.63;1.48;;;23.00;97.50;;;;;;5102635;27;20055;-85
2022/08/03 01:56:00;;;;;;;3.28;1.70;;;23.00;97.60;;;;;;5069968;28;20041;-84
2022/08/03 01:58:28;;;;;;;2.40;1.20;;;22.90;97.60;;;;;;5054956;28;20542;-85
2022/08/03 02:00:59;;;;;;;7.50;1.70;;;22.90;97.70;;;;;;5069530;28;20037;-84
2022/08/03 02:03:27;;;;;;;3.60;1.48;;;22.90;97.80;;;;;;5104069;27;20600;-84
2022/08/03 02:05:55;;;;;;;1.83;0.98;;;22.80;97.90;;;;;;5070428;28;20546;-84
2022/08/03 02:08:24;;;;;;;2.50;1.50;;;22.80;98.00;;;;;;5071910;28;20055;-84
2022/08/03 02:10:53;;;;;;;3.95;1.73;;;22.80;98.10;;;;;;5073924;28;20067;-85
2022/08/03 02:13:20;;;;;;;2.78;1.42;;;22.70;98.20;;;;;;5071969;28;20075;-85
2022/08/03 02:15:52;;;;;;;4.40;1.30;;;22.70;98.30;;;;;;5068053;28;20037;-85
2022/08/03 02:18:21;;;;;;;4.13;1.55;;;22.70;98.40;;;;;;5070751;28;20056;-85
2022/08/03 02:20:48;;;;;;;2.40;1.33;;;22.70;98.50;;;;;;5103612;27;20091;-84
2022/08/03 02:23:15;;;;;;;2.25;1.75;;;22.60;98.60;;;;;;5070627;28;20033;-84
2022/08/03 02:25:45;;;;;;;3.95;1.65;;;22.60;98.70;;;;;;5104330;27;20044;-84
2022/08/03 02:28:16;;;;;;;3.15;1.98;;;22.70;98.80;;;;;;5069165;28;20037;-85
2022/08/03 02:30:44;;;;;;;4.75;1.45;;;22.70;98.80;;;;;;5068691;28;20096;-84
2022/08/03 02:33:23;;;;;;;3.47;2.00;;;22.70;98.90;;;;;;5071556;28;20045;-84
2022/08/03 02:35:51;;;;;;;4.20;1.35;;;22.70;98.90;;;;;;5070178;28;20037;-84
2022/08/03 02:38:20;;;;;;;4.63;2.40;;;22.60;99.00;;;;;;5070475;28;20094;-85
2022/08/03 02:40:48;;;;;;;3.95;1.45;;;22.60;99.10;;;;;;5056891;28;20049;-84
2022/08/03 02:43:19;;;;;;;2.08;1.40;;;22.60;99.10;;;;;;5101968;27;20203;-84
2022/08/03 02:45:47;;;;;;;5.13;2.28;;;22.60;99.20;;;;;;5069221;28;20071;-84
2022/08/03 02:48:22;;;;;;;1.77;1.33;;;22.50;99.30;;;;;;5071504;28;20128;-83
2022/08/03 02:50:50;;;;;;;5.47;2.08;;;22.50;99.40;;;;;;5077774;28;20032;-83
2022/08/03 02:53:17;;;;;;;3.83;2.00;;;22.50;99.50;;;;;;5074035;28;20112;-84
2022/08/03 02:55:45;;;;;;;3.92;1.42;;;22.50;99.50;;;;;;5100816;27;20102;-84
2022/08/03 02:58:13;;;;;;;1.92;1.20;;;22.50;99.60;;;;;;5103015;27;20040;-84
2022/08/03 03:00:40;;;;;;;3.90;1.58;;;22.50;99.60;;;;;;5103821;27;20053;-84
2022/08/03 03:03:07;;;;;;;3.03;2.42;;;22.50;99.70;;;;;;5053656;28;20045;-85
2022/08/03 03:05:35;;;;;;;5.07;1.73;;;22.60;99.80;;;;;;5068046;28;20037;-84
2022/08/03 03:08:01;;;;;;;4.35;1.48;;;22.50;99.80;;;;;;5067799;28;20037;-85
2022/08/03 03:10:27;;;;;;;2.85;1.73;;;22.50;99.90;;;;;;5068891;28;20041;-85
2022/08/03 03:12:56;;;;;;;3.15;1.80;;;22.50;99.90;;;;;;5069480;28;20037;-84
2022/08/03 03:15:24;;;;;;;4.40;2.13;;;22.50;99.90;;;;;;5070032;28;20844;-84
2022/08/03 03:17:52;;;;;;;2.28;1.58;;;22.50;99.90;;;;;;5070189;28;20039;-83
2022/08/03 03:20:21;;;;;;;2.53;1.35;;;22.50;99.90;;;;;;5071121;28;20041;-83
2022/08/03 03:22:48;;;;;;;4.05;2.05;;;22.50;99.90;;;;;;5070543;28;20045;-84
2022/08/03 03:25:15;;;;;;;2.50;1.67;;;22.40;99.90;;;;;;5071439;28;20057;-84
2022/08/03 03:27:41;;;;;;;3.65;1.58;;;22.50;99.90;;;;;;5068250;28;20037;-83
2022/08/03 03:30:08;;;;;;;5.20;2.05;;;22.50;99.90;;;;;;5070314;28;20044;-83
2022/08/03 03:32:35;;;;;;;4.53;1.90;;;22.40;99.90;;;;;;5069928;28;20571;-84
2022/08/03 03:35:03;;;;;;;5.60;2.08;;;22.30;99.90;;;;;;5069572;28;20045;-87
2022/08/03 03:37:29;;;;;;;2.75;1.77;;;22.30;99.90;;;;;;5082904;28;20043;-83
2022/08/03 03:39:55;;;;;;;6.45;2.15;;;22.40;99.90;;;;;;5084536;28;20115;-83
2022/08/03 03:42:21;;;;;;;3.92;1.92;;;22.30;99.90;;;;;;5087436;28;20048;-83
2022/08/03 03:44:47;;;;;;;4.00;1.90;;;22.40;99.90;;;;;;5087281;28;20045;-82
2022/08/03 03:47:13;;;;;;;6.93;2.28;;;22.40;99.90;;;;;;5085673;28;20048;-83
2022/08/03 03:49:39;;;;;;;4.25;1.80;;;22.30;99.90;;;;;;5091945;28;20862;-82
2022/08/03 03:52:05;;;;;;;2.80;1.92;;;22.30;99.90;;;;;;5089515;28;20048;-83
2022/08/03 03:54:41;;;;;;;2.95;1.45;;;22.30;99.90;;;;;;5091176;28;20056;-84
2022/08/03 03:57:09;;;;;;;6.10;1.85;;;22.30;99.90;;;;;;5090317;28;20070;-83
2022/08/03 03:59:40;;;;;;;4.75;2.00;;;22.30;99.90;;;;;;5076699;28;20044;-81
2022/08/03 04:02:07;;;;;;;4.45;1.90;;;22.30;99.90;;;;;;5076832;28;20037;-82
2022/08/03 04:12:58;;;;;;;3.38;1.98;;;22.10;99.90;;;;;;5074501;28;20044;-85
2022/08/03 04:15:26;;;;;;;4.63;1.80;;;22.10;99.90;;;;;;5073336;28;20114;-83
2022/08/03 04:17:54;;;;;;;6.93;2.10;;;22.10;99.90;;;;;;5071953;28;20032;-83
2022/08/03 04:20:21;;;;;;;4.90;2.25;;;22.10;99.90;;;;;;5073003;28;20523;-83
2022/08/03 04:22:49;;;;;;;4.25;1.65;;;22.10;99.90;;;;;;5074686;28;20167;-83
2022/08/03 04:25:18;;;;;;;5.63;1.75;;;22.10;99.90;;;;;;5076811;28;20688;-83
2022/08/03 04:27:46;;;;;;;3.17;1.75;;;22.10;99.90;;;;;;5073457;28;20550;-83
2022/08/03 04:30:13;;;;;;;5.68;2.20;;;22.10;99.90;;;;;;5073112;28;20048;-83
2022/08/03 04:32:40;;;;;;;3.90;2.05;;;22.00;99.90;;;;;;5104997;27;20214;-83
2022/08/03 04:35:07;;;;;;;2.70;1.52;;;22.00;99.90;;;;;;5072549;28;20696;-83
2022/08/03 04:37:44;;;;;;;4.97;1.83;;;22.10;99.90;;;;;;5071172;28;20553;-83
2022/08/03 04:40:14;;;;;;;9.23;1.80;;;22.00;99.90;;;;;;5101241;27;20503;-83
2022/08/03 04:42:41;;;;;;;7.40;2.38;;;22.10;99.90;;;;;;5066804;28;20044;-82
2022/08/03 04:45:11;;;;;;;4.25;2.28;;;22.00;99.90;;;;;;5070370;28;20052;-83
2022/08/03 04:47:38;;;;;;;5.15;2.03;;;22.10;99.90;;;;;;5066964;28;20041;-84
2022/08/03 04:50:08;;;;;;;8.50;2.42;;;22.10;99.90;;;;;;5103856;27;20045;-83
2022/08/03 04:52:35;;;;;;;6.55;1.95;;;22.10;99.90;;;;;;5069148;28;20091;-81
2022/08/03 04:55:00;;;;;;;10.57;2.63;;;22.10;99.90;;;;;;5071882;28;20123;-83
2022/08/03 04:57:27;;;;;;;10.18;2.38;;;22.10;99.90;;;;;;5071536;28;20281;-83
2022/08/03 04:59:53;;;;;;;6.70;2.85;;;22.10;99.90;;;;;;5104618;27;20037;-83
2022/08/03 05:02:20;;;;;;;5.75;2.45;;;22.10;99.90;;;;;;5071795;28;20525;-84
2022/08/03 05:04:46;;;;;;;7.63;2.55;;;22.10;99.90;;;;;;5071981;28;20041;-82
2022/08/03 05:07:16;;;;;;;7.97;2.28;;;22.00;99.90;;;;;;5072565;28;20111;-79
2022/08/03 05:09:43;;;;;;;4.63;2.30;;;22.10;99.90;;;;;;5063037;28;20056;-82
2022/08/03 05:12:11;;;;;;;9.93;3.85;;;22.10;99.90;;;;;;5064217;28;20379;-83
2022/08/03 05:14:37;;;;;;;7.22;2.38;;;22.10;99.90;;;;;;5063439;28;20462;-83
2022/08/03 05:17:08;;;;;;;7.07;1.95;;;22.10;99.90;;;;;;5067718;28;20584;-84
2022/08/03 05:19:34;;;;;;;10.48;2.67;;;22.10;99.90;;;;;;5067482;28;20061;-85
2022/08/03 05:22:00;;;;;;;8.77;3.25;;;22.10;99.90;;;;;;5106991;27;20415;-84
2022/08/03 05:24:26;;;;;;;9.80;4.85;;;22.10;99.90;;;;;;5073858;28;20094;-84
2022/08/03 05:26:52;;;;;;;8.40;2.90;;;22.10;99.90;;;;;;5103958;27;20093;-85
2022/08/03 05:29:18;;;;;;;7.25;2.40;;;22.10;99.90;;;;;;5070482;28;20563;-83
2022/08/03 05:31:46;;;;;;;8.50;2.55;;;22.10;99.90;;;;;;5073646;28;20051;-85
2022/08/03 05:34:11;;;;;;;5.65;3.22;;;22.10;99.90;;;;;;5070074;28;20041;-85
2022/08/03 05:36:38;;;;;;;5.38;2.72;;;22.10;99.90;;;;;;5069042;28;20044;-85
2022/08/03 05:39:04;;;;;;;4.97;2.35;;;22.20;99.90;;;;;;5073310;28;20063;-84
2022/08/03 05:41:30;;;;;;;6.38;3.53;;;22.20;99.90;;;;;;5070388;28;20044;-84
2022/08/03 05:43:56;;;;;;;4.35;2.03;;;22.20;99.90;;;;;;5073065;28;20098;-85
2022/08/03 05:46:23;;;;;;;3.75;2.20;;;22.20;99.90;;;;;;5071111;28;20218;-85
2022/08/03 05:48:50;;;;;;;7.85;2.08;;;22.20;99.90;;;;;;5068555;28;20127;-85
2022/08/03 05:51:15;;;;;;;5.10;2.67;;;22.30;99.90;;;;;;5072167;28;20045;-85
2022/08/03 05:53:42;;;;;;;5.30;2.15;;;22.30;99.90;;;;;;5071454;28;20044;-84
2022/08/03 05:56:08;;;;;;;6.63;2.83;;;22.30;99.90;;;;;;5068710;28;20139;-84
2022/08/03 05:58:33;;;;;;;6.97;2.67;;;22.40;99.90;;;;;;5052239;28;20102;-83
2022/08/03 06:00:59;;;;;;;8.10;2.65;;;22.30;99.90;;;;;;5069782;28;20040;-83
2022/08/03 06:03:25;;;;;;;5.30;2.50;;;22.30;99.90;;;;;;5067906;28;20053;-82
2022/08/03 06:05:55;;;;;;;6.63;2.55;;;22.40;99.90;;;;;;5065989;28;21256;-81
2022/08/03 06:08:21;;;;;;;3.95;2.42;;;22.40;99.90;;;;;;5061385;28;20064;-82
2022/08/03 06:10:47;;;;;;;8.27;3.10;;;22.40;99.90;;;;;;5065222;28;21069;-81
2022/08/03 06:13:13;;;;;;;10.60;3.35;;;22.40;99.90;;;;;;5062901;28;20045;-81
2022/08/03 06:15:39;;;;;;;4.65;2.55;;;22.40;99.90;;;;;;5065522;28;20140;-81
2022/08/03 06:18:06;;;;;;;6.35;2.90;;;22.40;99.90;;;;;;5065793;28;20095;-81
2022/08/03 06:20:32;;;;;;;6.43;2.55;;;22.40;99.90;;;;;;5067199;28;20043;-82
2022/08/03 06:22:59;;;;;;;8.45;2.95;;;22.50;99.90;;;;;;5066657;28;20037;-82
2022/08/03 06:25:25;;;;;;;8.27;2.63;;;22.50;99.90;;;;;;5066470;28;20559;-82
2022/08/03 06:27:51;;;;;;;6.43;2.55;;;22.50;99.90;;;;;;5066216;28;20064;-82
2022/08/03 06:30:17;;;;;;;7.38;2.90;;;22.60;99.90;;;;;;5098135;27;20463;-81
2022/08/03 06:32:43;;;;;;;6.50;2.67;;;22.60;99.90;;;;;;5062967;28;20049;-81
2022/08/03 06:35:09;;;;;;;10.38;2.80;;;22.60;99.90;;;;;;5062598;28;20040;-81
2022/08/03 06:37:46;;;;;;;3.92;2.53;;;22.60;99.90;;;;;;5061819;28;20052;-82
2022/08/03 06:40:13;;;;;;;5.72;2.70;;;22.60;99.90;;;;;;5064621;28;20043;-81
2022/08/03 06:42:40;;;;;;;10.52;3.85;;;22.60;99.90;;;;;;5064985;28;20629;-82
2022/08/03 06:45:07;;;;;;;3.80;2.75;;;22.60;99.90;;;;;;5065327;28;20033;-81
2022/08/03 06:47:38;;;;;;;7.45;2.70;;;22.60;99.90;;;;;;5068187;28;20155;-81
2022/08/03 06:50:08;;;;;;;10.75;3.08;;;22.70;99.90;;;;;;5072121;28;20040;-81
2022/08/03 06:52:34;;;;;;;8.45;3.00;;;22.70;99.90;;;;;;5072980;28;20296;-81
2022/08/03 06:55:00;;;;;;;5.47;3.33;;;22.70;99.90;;;;;;5072999;28;20032;-81
2022/08/03 06:57:26;;;;;;;4.05;2.35;;;22.70;99.90;;;;;;5071739;28;20612;-81
2022/08/03 06:59:52;;;;;;;4.85;2.65;;;22.80;99.90;;;;;;5071277;28;20151;-81
2022/08/03 07:02:19;;;;;;;6.55;2.97;;;22.80;99.90;;;;;;5072328;28;20094;-81
2022/08/03 07:04:45;;;;;;;5.40;2.40;;;22.80;99.90;;;;;;5078743;28;20041;-81
2022/08/03 07:07:11;;;;;;;6.70;2.80;;;22.80;99.90;;;;;;5090365;28;20147;-81
2022/08/03 07:09:37;;;;;;;8.57;2.70;;;22.90;99.90;;;;;;5091762;28;20126;-81
2022/08/03 07:12:05;;;;;;;5.10;2.40;;;22.90;99.90;;;;;;5090534;28;20044;-81
2022/08/03 07:14:31;;;;;;;8.40;2.83;;;22.90;99.90;;;;;;5089101;28;20068;-81
2022/08/03 07:16:57;;;;;;;7.28;3.45;;;22.90;99.90;;;;;;5073939;28;20048;-81
2022/08/03 07:19:22;;;;;;;8.95;2.92;;;22.90;99.90;;;;;;5070668;28;20515;-81
2022/08/03 07:21:48;;;;;;;4.32;2.33;;;22.90;99.90;;;;;;5103880;27;20040;-81
2022/08/03 07:24:14;;;;;;;7.57;2.50;;;23.00;99.90;;;;;;5104933;27;20049;-81
2022/08/03 07:26:40;;;;;;;5.75;2.30;;;23.00;99.90;;;;;;5071941;28;20118;-81
2022/08/03 07:29:06;;;;;;;5.45;2.45;;;23.00;99.90;;;;;;5071567;28;20072;-81
2022/08/03 07:31:32;;;;;;;5.82;2.38;;;23.00;99.90;;;;;;5070142;28;20040;-81
2022/08/03 07:33:58;;;;;;;5.93;2.50;;;23.10;99.90;;;;;;5071042;28;20037;-82
2022/08/03 07:36:24;;;;;;;10.63;3.08;;;23.10;99.90;;;;;;5070012;28;20145;-80
2022/08/03 07:38:49;;;;;;;6.28;2.35;;;23.10;99.90;;;;;;5071808;28;20110;-81
2022/08/03 07:41:15;;;;;;;7.75;2.60;;;23.10;99.90;;;;;;5103162;27;20610;-81
2022/08/03 07:43:41;;;;;;;6.28;2.60;;;23.20;99.90;;;;;;5071108;28;20045;-81
2022/08/03 07:46:07;;;;;;;9.82;3.28;;;23.20;99.90;;;;;;5070756;28;20041;-82
2022/08/03 07:48:33;;;;;;;10.68;2.83;;;23.20;99.90;;;;;;5068335;28;20562;-82
2022/08/03 07:50:58;;;;;;;11.05;3.03;;;23.20;99.90;;;;;;5072095;28;20034;-81
2022/08/03 07:53:24;;;;;;;11.30;2.58;;;23.20;99.90;;;;;;5070480;28;20173;-81
2022/08/03 07:55:50;;;;;;;9.82;2.40;;;23.40;99.90;;;;;;5104234;27;20068;-81
2022/08/03 07:58:16;;;;;;;10.23;2.30;;;23.30;99.90;;;;;;5070130;28;20450;-82
2022/08/03 08:00:43;;;;;;;10.32;2.80;;;23.40;99.90;;;;;;5069180;28;20957;-81
2022/08/03 08:03:10;;;;;;;9.85;3.75;;;23.40;99.90;;;;;;5070015;28;20041;-81
2022/08/03 08:05:39;;;;;;;5.57;2.67;;;23.40;99.90;;;;;;5069529;28;20103;-82
2022/08/03 08:08:05;;;;;;;4.53;2.13;;;23.40;99.90;;;;;;5068389;28;20747;-81
2022/08/03 08:10:31;;;;;;;4.80;2.60;;;23.50;99.90;;;;;;5086309;28;20067;-82
2022/08/03 08:12:57;;;;;;;3.70;1.60;;;23.50;99.90;;;;;;5070266;28;20045;-81
2022/08/03 08:15:24;;;;;;;3.50;1.92;;;23.50;99.90;;;;;;5070686;28;20037;-81
2022/08/03 08:17:52;;;;;;;2.70;1.83;;;23.50;99.90;;;;;;5068648;28;20048;-82
2022/08/03 08:20:21;;;;;;;4.28;1.92;;;23.50;99.90;;;;;;5068783;28;20087;-81
2022/08/03 08:22:48;;;;;;;5.43;2.55;;;23.60;99.90;;;;;;5070247;28;20041;-81
2022/08/03 08:25:14;;;;;;;6.45;2.10;;;23.60;99.90;;;;;;5067761;28;20056;-81
2022/08/03 08:27:45;;;;;;;5.78;2.88;;;23.60;99.90;;;;;;5101481;27;20044;-81
2022/08/03 08:30:13;;;;;;;6.40;2.30;;;23.60;99.90;;;;;;5070145;28;20439;-81
2022/08/03 08:32:39;;;;;;;5.28;2.30;;;23.70;99.90;;;;;;5066727;28;20469;-81
2022/08/03 08:35:06;;;;;;;8.23;2.75;;;23.70;99.90;;;;;;5069711;28;20033;-81
2022/08/03 08:37:32;;;;;;;7.93;2.00;;;23.80;99.90;;;;;;5066508;28;20102;-81
2022/08/03 08:39:58;;;;;;;3.20;1.88;;;23.80;99.90;;;;;;5068999;28;20041;-81
2022/08/03 08:42:25;;;;;;;4.03;2.05;;;23.90;99.90;;;;;;5068276;28;20045;-81
2022/08/03 08:44:50;;;;;;;3.25;1.70;;;23.90;99.90;;;;;;5101851;27;20555;-81
2022/08/03 08:47:23;;;;;;;9.23;2.90;;;23.90;99.90;;;;;;5068424;28;20124;-81
2022/08/03 08:49:52;;;;;;;3.33;2.00;;;23.90;99.90;;;;;;5070586;28;20041;-81
2022/08/03 08:52:28;;;;;;;5.57;2.65;;;24.00;99.90;;;;;;5069608;28;20039;-81
2022/08/03 08:54:59;;;;;;;3.20;1.83;;;24.00;99.90;;;;;;5074596;28;20188;-81
2022/08/03 08:57:28;;;;;;;5.67;2.10;;;24.00;99.90;;;;;;5087951;28;20098;-81
2022/08/03 08:59:55;;;;;;;8.02;2.40;;;24.00;99.90;;;;;;5072825;28;20498;-82
2022/08/03 09:02:25;;;;;;;2.60;1.63;;;24.10;99.90;;;;;;5104312;27;20037;-81
2022/08/03 09:04:52;;;;;;;5.03;1.70;;;24.10;99.90;;;;;;5073039;28;20503;-82
2022/08/03 09:07:17;;;;;;;3.35;1.67;;;24.10;99.90;;;;;;5072399;28;20064;-81
2022/08/03 09:09:43;;;;;;;5.72;2.13;;;24.10;99.90;;;;;;5072214;28;20650;-82
2022/08/03 09:12:09;;;;;;;9.75;2.95;;;24.20;99.90;;;;;;5073241;28;20494;-81
2022/08/03 09:14:35;;;;;;;4.63;2.05;;;24.20;99.90;;;;;;5071969;28;20047;-81
2022/08/03 09:17:03;;;;;;;2.35;1.52;;;24.30;99.90;;;;;;5105198;27;20456;-81
2022/08/03 09:19:33;;;;;;;3.60;1.80;;;24.30;99.90;;;;;;5071504;28;20519;-81
2022/08/03 09:22:16;;;;;;;4.68;1.65;;;24.30;99.90;;;;;;5072547;28;20548;-82
2022/08/03 09:25:00;;;;;;;4.28;2.25;;;24.40;99.90;;;;;;5071028;28;20684;-81
2022/08/03 09:27:26;;;;;;;6.88;1.80;;;24.40;99.90;;;;;;5072825;28;20037;-82
2022/08/03 09:29:53;;;;;;;2.90;1.77;;;24.40;99.90;;;;;;5071833;28;20045;-82
2022/08/03 09:32:23;;;;;;;1.55;1.10;;;24.40;99.90;;;;;;5071147;28;20098;-82
2022/08/03 09:34:51;;;;;;;3.65;1.60;;;24.40;99.90;;;;;;5070048;28;20041;-82
2022/08/03 09:37:19;;;;;;;1.65;1.17;;;24.40;99.90;;;;;;5073654;28;20037;-81
2022/08/03 09:39:46;;;;;;;5.45;1.50;;;24.50;99.90;;;;;;5071011;28;20055;-81
2022/08/03 09:42:18;;;;;;;4.53;1.83;;;24.50;99.90;;;;;;5072896;28;20040;-82
2022/08/03 09:44:50;;;;;;;2.13;1.67;;;24.60;99.90;;;;;;5073714;28;20052;-82
2022/08/03 09:47:36;;;;;;;2.60;1.50;;;24.60;99.90;;;;;;5104259;27;20044;-81
2022/08/03 09:50:07;;;;;;;3.20;1.50;;;24.60;99.90;;;;;;5072899;28;20099;-81
2022/08/03 09:52:38;;;;;;;3.08;1.58;;;24.70;99.90;;;;;;5088207;28;20049;-82
2022/08/03 09:55:13;;;;;;;2.60;1.40;;;24.70;99.90;;;;;;5072109;28;20053;-82
2022/08/03 09:57:45;;;;;;;2.80;1.50;;;24.70;99.90;;;;;;5107911;27;20065;-82
2022/08/03 10:00:12;;;;;;;3.03;1.92;;;24.70;99.90;;;;;;5091528;28;20036;-82
2022/08/03 10:02:40;;;;;;;1.73;1.33;;;24.80;99.90;;;;;;5090341;28;20047;-82
2022/08/03 10:05:08;;;;;;;3.85;1.15;;;24.80;99.80;;;;;;5091348;28;20037;-82
2022/08/03 10:07:44;;;;;;;3.85;1.50;;;24.80;99.50;;;;;;5090874;28;20041;-82
2022/08/03 10:10:12;;;;;;;3.72;1.63;;;24.90;99.20;;;;;;5075838;28;20785;-81
2022/08/03 10:12:40;;;;;;;1.92;1.20;;;24.90;98.70;;;;;;5073568;28;20211;-81
2022/08/03 10:15:07;;;;;;;2.33;1.38;;;25.00;98.90;;;;;;5076769;28;20072;-81
2022/08/03 10:17:33;;;;;;;2.85;1.80;;;25.00;98.70;;;;;;5076788;28;20059;-80
2022/08/03 10:20:08;;;;;;;2.60;1.27;;;25.00;98.50;;;;;;5073281;28;20064;-81
2022/08/03 10:22:37;;;;;;;5.68;1.40;;;25.10;98.40;;;;;;5070698;28;20040;-81
2022/08/03 10:25:07;;;;;;;3.63;1.45;;;25.10;98.20;;;;;;5076071;28;20122;-81
2022/08/03 10:27:39;;;;;;;2.60;1.55;;;25.20;98.10;;;;;;5072866;28;20063;-81
2022/08/03 10:30:09;;;;;;;3.05;1.27;;;25.20;98.00;;;;;;5072466;28;20642;-81
2022/08/03 10:32:47;;;;;;;3.70;1.90;;;25.30;97.80;;;;;;5071411;28;20037;-81
2022/08/03 10:35:16;;;;;;;2.13;1.27;;;25.20;97.70;;;;;;5067439;28;20385;-81
2022/08/03 10:37:56;;;;;;;3.42;1.35;;;25.30;97.70;;;;;;5068470;28;20041;-81
2022/08/03 10:40:23;;;;;;;2.97;1.10;;;25.30;97.50;;;;;;5068839;28;20048;-81
2022/08/03 10:42:52;;;;;;;2.95;1.52;;;25.20;97.40;;;;;;5068375;28;20923;-81
2022/08/03 10:45:22;;;;;;;2.05;1.05;;;25.30;97.30;;;;;;5068631;28;20095;-81
2022/08/03 10:47:50;;;;;;;1.95;1.00;;;25.40;97.10;;;;;;5068418;28;20048;-81
2022/08/03 10:50:16;;;;;;;4.22;1.42;;;25.40;97.00;;;;;;5068927;28;20415;-81
2022/08/03 10:53:06;;;;;;;2.08;1.20;;;25.50;96.80;;;;;;5100265;27;20099;-82
2022/08/03 10:58:52;;;;;;;3.05;1.40;;;25.50;96.30;;;;;;5067576;28;20049;-82
2022/08/03 11:01:40;;;;;;;2.90;1.30;;;25.60;96.20;;;;;;5060708;28;20087;-82
2022/08/03 11:04:05;;;;;;;2.78;1.17;;;25.50;96.20;;;;;;5071090;28;20032;-82
2022/08/03 11:06:31;;;;;;;2.10;1.02;;;25.60;96.10;;;;;;5070827;28;20045;-82
2022/08/03 11:09:09;;;;;;;6.63;1.80;;;25.60;96.00;;;;;;5070095;28;20045;-82
2022/08/03 11:11:36;;;;;;;5.88;1.60;;;25.60;95.80;;;;;;5101684;27;20040;-81
2022/08/03 11:14:08;;;;;;;2.85;1.30;;;25.70;95.80;;;;;;5054459;28;20044;-82
2022/08/03 11:16:36;;;;;;;3.90;1.48;;;25.70;95.60;;;;;;5101371;27;20052;-82
2022/08/03 11:19:11;;;;;;;1.75;1.13;;;25.70;95.50;;;;;;5068239;28;20044;-81
2022/08/03 11:21:48;;;;;;;1.75;1.10;;;25.80;95.40;;;;;;5069394;28;20110;-80
2022/08/03 11:24:50;;;;;;;1.88;1.13;;;25.90;95.20;;;;;;5069651;28;20040;-84
2022/08/03 11:27:24;;;;;;;3.63;1.13;;;25.90;95.10;;;;;;5015184;28;20092;-81
2022/08/03 11:29:56;;;;;;;1.27;0.95;;;25.90;95.00;;;;;;5068867;28;20668;-81
2022/08/03 11:32:37;;;;;;;2.00;1.10;;;26.00;94.80;;;;;;5066568;28;20495;-81
2022/08/03 11:35:15;;;;;;;1.50;1.10;;;26.00;94.70;;;;;;5068128;28;20040;-81
2022/08/03 11:37:56;;;;;;;9.57;1.50;;;26.00;94.60;;;;;;5101712;27;20052;-81
2022/08/03 11:40:46;;;;;;;2.67;1.27;;;26.00;94.30;;;;;;5069102;28;20034;-81
2022/08/03 11:43:20;;;;;;;6.57;1.55;;;26.00;94.10;;;;;;5069425;28;20649;-81
2022/08/03 11:46:01;;;;;;;2.78;1.52;;;26.00;94.10;;;;;;5067222;28;20040;-81
2022/08/03 11:48:28;;;;;;;2.20;1.10;;;26.00;94.10;;;;;;5067150;28;20138;-81
2022/08/03 11:50:53;;;;;;;3.50;1.15;;;26.10;94.00;;;;;;5098016;27;20087;-81
2022/08/03 11:53:20;;;;;;;2.80;1.20;;;26.10;93.70;;;;;;5065514;28;20447;-81
2022/08/03 11:55:49;;;;;;;3.90;1.80;;;26.20;93.40;;;;;;5097810;27;21727;-81
2022/08/03 11:58:20;;;;;;;2.03;1.48;;;26.20;93.00;;;;;;5067679;28;20599;-81
2022/08/03 12:00:47;;;;;;;1.60;1.08;;;26.30;92.80;;;;;;5067167;28;20056;-81
2022/08/03 12:03:20;;;;;;;2.38;1.50;;;26.30;92.70;;;;;;5066899;28;20116;-82
2022/08/03 12:05:47;;;;;;;1.55;1.10;;;26.30;92.80;;;;;;5067289;28;20099;-81
2022/08/03 12:08:15;;;;;;;1.98;1.17;;;26.30;92.80;;;;;;5099119;27;20056;-81
2022/08/03 12:10:48;;;;;;;2.47;0.90;;;26.40;92.80;;;;;;5081519;28;20115;-81
2022/08/03 12:13:14;;;;;;;1.45;1.08;;;26.40;92.80;;;;;;5068272;28;20051;-81
2022/08/03 12:15:40;;;;;;;3.35;1.25;;;26.40;92.90;;;;;;5067416;28;20040;-81
2022/08/03 12:18:18;;;;;;;4.18;1.48;;;26.40;92.80;;;;;;5067914;28;20083;-81
2022/08/03 12:20:44;;;;;;;2.78;1.00;;;26.50;92.80;;;;;;5066301;28;20045;-81
2022/08/03 12:23:11;;;;;;;7.07;1.30;;;26.60;92.70;;;;;;5083281;28;20044;-81
2022/08/03 12:25:40;;;;;;;5.63;1.40;;;26.60;92.60;;;;;;5065897;28;20110;-81
2022/08/03 12:28:15;;;;;;;3.08;0.98;;;26.70;92.20;;;;;;5071478;28;20044;-81
2022/08/03 12:30:42;;;;;;;2.35;0.90;;;26.70;92.00;;;;;;5102465;27;20611;-81
2022/08/03 12:33:14;;;;;;;2.33;1.25;;;26.70;91.90;;;;;;5070138;28;20041;-81
2022/08/03 12:35:41;;;;;;;3.33;0.90;;;26.70;91.70;;;;;;5070855;28;20037;-81
2022/08/03 12:38:07;;;;;;;3.80;1.10;;;26.70;91.70;;;;;;5071352;28;20079;-81
2022/08/03 12:40:32;;;;;;;2.17;1.35;;;26.70;91.60;;;;;;5071521;28;20600;-81
2022/08/03 12:42:58;;;;;;;3.80;1.17;;;26.70;91.60;;;;;;5080022;28;20124;-81
2022/08/03 12:45:26;;;;;;;2.13;1.15;;;26.80;91.60;;;;;;5084357;28;20082;-81
2022/08/03 12:47:56;;;;;;;4.05;1.30;;;26.90;91.40;;;;;;5084135;28;20045;-81
2022/08/03 12:50:33;;;;;;;3.37;0.90;;;27.00;91.00;;;;;;5080087;28;20092;-81
2022/08/03 12:53:03;;;;;;;1.60;1.15;;;27.10;90.40;;;;;;5072449;28;20043;-81
2022/08/03 12:55:32;;;;;;;4.03;1.30;;;27.10;90.10;;;;;;5069789;28;20037;-81
2022/08/03 12:58:06;;;;;;;1.90;1.17;;;27.10;89.80;;;;;;5054314;28;20052;-81
2022/08/03 13:00:32;;;;;;;4.63;1.10;;;27.10;89.70;;;;;;5103560;27;20069;-81
2022/08/03 13:03:04;;;;;;;2.03;1.30;;;27.10;89.80;;;;;;5068583;28;20578;-81
2022/08/03 13:05:30;;;;;;;1.85;1.10;;;27.10;89.80;;;;;;5069605;28;20045;-82